Archer City, TX (76351)

5:43 AM CDT on September 20, 2014 (GMT -0500)
Archer City | Change Station
CLOSE
Current Station
Personal Weather Station
Location: Archer City, TX
Elevation: 1089 ft
Nearby Weather Stations

Elev 1089 ft 33.58 °N, 98.63 °W | Updated 10 seconds ago

Partly Cloudy
Partly Cloudy
68.7 °F
Feels Like 68.7 °F
N
0.0
Wind Variable Wind from SE
Gusts 1.6 mph

Today
High -- | Low -- °F
--% Chance of Precip.
Yesterday
High -- | Low -- °F
Precip. -- in
7:21 AM 7:33 PM
Waning Crescent, 13% visible
Pressure 29.97 in
Visibility 10.0 miles
Clouds Clear
Dew Point 68 °F
Humidity 99%
Rainfall 0.00 in
Snow Depth Not available.
UV 0 out of 12
Pollen 10.50 out of 12
Air Quality Not available.
Flu Activity Not available.
METAR KCWC 201035Z AUTO 12004KT 10SM CLR 21/20 A2997 RMK AO2 T02130195

More Conditions Fewer Conditions

Pressure 29.97 in
Visibility 10.0 miles
Clouds Clear
Dew Point 68 °F
Humidity 99%
Rainfall 0.00 in
Snow Depth Not available.
UV 0 out of 12
Pollen 10.50 out of 12
Air Quality Not available.
Flu Activity Not available.
METAR KCWC 201035Z AUTO 12004KT 10SM CLR 21/20 A2997 RMK AO2 T02130195

More Conditions Fewer Conditions

10-Day Weather Forecast

Almanac

Astronomy

Sep. 20, 2014 Rise Set
Actual Time 7:21 AM CDT 7:33 PM CDT
Civil Twilight 6:56 AM CDT 7:58 PM CDT
Nautical Twilight 6:27 AM CDT 8:27 PM CDT
Astronomical Twilight 5:57 AM CDT 8:57 PM CDT
Moon 4:09 AM CDT 5:31 PM CDT
Length of Visible Light 13h 02m
Length of Day
12h 12m
Tomorrow will be 2m 4s shorter.
Waning Crescent, 13% of the Moon is Illuminated
Today
Waning Crescent
Sep 24
New
Oct 1
First Quarter
Oct 8
Full
Oct 15
Last Quarter

Today's Extremes

State Highs State Lows

Community

WunderPhotos

Upload Photos

1,754,827 photos uploaded!

WunderBlogs® & News

Nearby

Snow Depth

Station Depth Elevation
No new snow has been reported.

Earthquake Activity

City Distance Mag. Time & Date
Jones, Oklahoma 156 miles 2.8 1:13 AM CDT
2014-09-19
Minimum magnitude displayed is 2.5.

Coastal Water Temperatures

Place Temperature
No Stations Reporting

Nearby Weather Stations